sensor_id;sensor_type;location;lat;lon;timestamp;temperature;humidity
73438;DHT22;66471;56.532;21.020;2023-12-20T07:15:04;4.70;93.90
73438;DHT22;66471;56.532;21.020;2023-12-20T07:17:33;4.60;93.70
73438;DHT22;66471;56.532;21.020;2023-12-20T07:20:01;4.80;94.10
73438;DHT22;66471;56.532;21.020;2023-12-20T07:22:31;4.70;93.30
73438;DHT22;66471;56.532;21.020;2023-12-20T07:24:59;4.90;93.00
73438;DHT22;66471;56.532;21.020;2023-12-20T07:27:27;5.00;92.80
73438;DHT22;66471;56.532;21.020;2023-12-20T07:29:54;4.80;92.90
73438;DHT22;66471;56.532;21.020;2023-12-20T07:32:21;5.00;92.40
73438;DHT22;66471;56.532;21.020;2023-12-20T07:34:49;4.90;92.80
73438;DHT22;66471;56.532;21.020;2023-12-20T07:37:17;5.10;93.90
73438;DHT22;66471;56.532;21.020;2023-12-20T07:39:46;5.00;93.80
73438;DHT22;66471;56.532;21.020;2023-12-20T07:42:13;5.00;94.00
73438;DHT22;66471;56.532;21.020;2023-12-20T07:44:41;5.00;93.00
73438;DHT22;66471;56.532;21.020;2023-12-20T07:47:13;5.20;93.00
73438;DHT22;66471;56.532;21.020;2023-12-20T07:49:45;5.00;92.60
73438;DHT22;66471;56.532;21.020;2023-12-20T07:52:13;5.10;92.20
73438;DHT22;66471;56.532;21.020;2023-12-20T07:54:41;5.10;92.10
73438;DHT22;66471;56.532;21.020;2023-12-20T07:57:12;5.20;92.00
73438;DHT22;66471;56.532;21.020;2023-12-20T07:59:39;5.20;93.00
73438;DHT22;66471;56.532;21.020;2023-12-20T08:02:12;5.20;93.80
73438;DHT22;66471;56.532;21.020;2023-12-20T08:04:39;5.20;93.60
73438;DHT22;66471;56.532;21.020;2023-12-20T08:07:12;5.10;93.10
73438;DHT22;66471;56.532;21.020;2023-12-20T08:09:39;5.10;92.30
73438;DHT22;66471;56.532;21.020;2023-12-20T08:12:06;5.10;92.90
73438;DHT22;66471;56.532;21.020;2023-12-20T08:14:35;4.90;93.90
73438;DHT22;66471;56.532;21.020;2023-12-20T08:17:03;5.10;94.20
73438;DHT22;66471;56.532;21.020;2023-12-20T08:19:35;5.10;95.20
73438;DHT22;66471;56.532;21.020;2023-12-20T08:22:02;5.10;94.40
73438;DHT22;66471;56.532;21.020;2023-12-20T08:24:30;5.10;93.00
73438;DHT22;66471;56.532;21.020;2023-12-20T08:26:58;5.30;93.00
73438;DHT22;66471;56.532;21.020;2023-12-20T08:29:26;5.10;93.10
73438;DHT22;66471;56.532;21.020;2023-12-20T08:31:53;5.20;93.00
73438;DHT22;66471;56.532;21.020;2023-12-20T08:34:21;4.90;93.00
73438;DHT22;66471;56.532;21.020;2023-12-20T08:36:53;5.00;93.20
73438;DHT22;66471;56.532;21.020;2023-12-20T08:39:27;5.20;93.30
73438;DHT22;66471;56.532;21.020;2023-12-20T08:41:59;5.40;93.30
73438;DHT22;66471;56.532;21.020;2023-12-20T08:44:26;5.40;92.50
73438;DHT22;66471;56.532;21.020;2023-12-20T08:46:56;5.60;92.70
73438;DHT22;66471;56.532;21.020;2023-12-20T08:49:24;5.50;92.60
73438;DHT22;66471;56.532;21.020;2023-12-20T08:51:52;5.50;92.70
73438;DHT22;66471;56.532;21.020;2023-12-20T08:54:20;5.50;92.50
73438;DHT22;66471;56.532;21.020;2023-12-20T08:56:47;5.50;92.80
73438;DHT22;66471;56.532;21.020;2023-12-20T08:59:14;5.60;93.10
73438;DHT22;66471;56.532;21.020;2023-12-20T09:01:41;5.60;93.10
73438;DHT22;66471;56.532;21.020;2023-12-20T09:04:09;5.40;93.70
73438;DHT22;66471;56.532;21.020;2023-12-20T12:59:26;4.50;99.90
73438;DHT22;66471;56.532;21.020;2023-12-20T13:01:53;4.40;99.90
73438;DHT22;66471;56.532;21.020;2023-12-20T13:04:20;4.50;99.90
73438;DHT22;66471;56.532;21.020;2023-12-20T13:06:48;4.20;99.90
73438;DHT22;66471;56.532;21.020;2023-12-20T13:09:15;4.40;99.90
73438;DHT22;66471;56.532;21.020;2023-12-20T13:11:42;4.40;99.90
73438;DHT22;66471;56.532;21.020;2023-12-20T13:14:09;4.50;99.90
73438;DHT22;66471;56.532;21.020;2023-12-20T13:16:42;4.60;99.90
73438;DHT22;66471;56.532;21.020;2023-12-20T13:19:09;4.50;99.90
73438;DHT22;66471;56.532;21.020;2023-12-20T13:21:37;4.20;99.90
73438;DHT22;66471;56.532;21.020;2023-12-20T13:24:04;4.40;99.90
73438;DHT22;66471;56.532;21.020;2023-12-20T13:26:32;4.50;99.90
73438;DHT22;66471;56.532;21.020;2023-12-20T13:28:59;4.30;99.90
73438;DHT22;66471;56.532;21.020;2023-12-20T13:31:26;4.40;99.90
73438;DHT22;66471;56.532;21.020;2023-12-20T13:33:54;4.60;99.90
73438;DHT22;66471;56.532;21.020;2023-12-20T13:36:21;4.20;99.90
73438;DHT22;66471;56.532;21.020;2023-12-20T13:38:48;4.20;99.90
73438;DHT22;66471;56.532;21.020;2023-12-20T13:41:16;4.60;99.90
73438;DHT22;66471;56.532;21.020;2023-12-20T13:43:43;4.40;99.90
73438;DHT22;66471;56.532;21.020;2023-12-20T13:46:10;4.60;99.90
73438;DHT22;66471;56.532;21.020;2023-12-20T13:48:37;4.90;99.90
73438;DHT22;66471;56.532;21.020;2023-12-20T13:51:04;4.90;99.90
73438;DHT22;66471;56.532;21.020;2023-12-20T13:53:32;4.70;99.90
73438;DHT22;66471;56.532;21.020;2023-12-20T13:56:00;4.50;99.90
73438;DHT22;66471;56.532;21.020;2023-12-20T13:58:27;4.40;99.90
73438;DHT22;66471;56.532;21.020;2023-12-20T14:00:55;4.50;99.90
73438;DHT22;66471;56.532;21.020;2023-12-20T14:03:23;4.30;99.90
73438;DHT22;66471;56.532;21.020;2023-12-20T14:05:50;4.30;99.90
73438;DHT22;66471;56.532;21.020;2023-12-20T14:08:17;4.40;99.90
73438;DHT22;66471;56.532;21.020;2023-12-20T14:10:44;4.40;99.90
73438;DHT22;66471;56.532;21.020;2023-12-20T14:13:13;4.20;99.90
73438;DHT22;66471;56.532;21.020;2023-12-20T14:15:40;4.40;99.90
73438;DHT22;66471;56.532;21.020;2023-12-20T14:18:07;4.20;99.90
73438;DHT22;66471;56.532;21.020;2023-12-20T14:20:35;4.20;99.90
73438;DHT22;66471;56.532;21.020;2023-12-20T14:23:04;4.30;99.90
73438;DHT22;66471;56.532;21.020;2023-12-20T14:25:31;4.30;99.90
73438;DHT22;66471;56.532;21.020;2023-12-20T14:28:11;4.30;99.90
73438;DHT22;66471;56.532;21.020;2023-12-20T14:30:41;4.60;99.90
73438;DHT22;66471;56.532;21.020;2023-12-20T14:33:08;4.40;99.90
73438;DHT22;66471;56.532;21.020;2023-12-20T14:35:36;4.50;99.90
73438;DHT22;66471;56.532;21.020;2023-12-20T14:38:03;4.50;99.90
73438;DHT22;66471;56.532;21.020;2023-12-20T14:40:30;4.60;99.90
73438;DHT22;66471;56.532;21.020;2023-12-20T14:42:58;4.80;99.90
73438;DHT22;66471;56.532;21.020;2023-12-20T14:45:27;4.80;99.90
73438;DHT22;66471;56.532;21.020;2023-12-20T14:47:54;4.90;99.90
73438;DHT22;66471;56.532;21.020;2023-12-20T14:50:22;4.80;99.90
73438;DHT22;66471;56.532;21.020;2023-12-20T14:52:49;4.80;99.90
73438;DHT22;66471;56.532;21.020;2023-12-20T14:55:18;4.90;99.90
73438;DHT22;66471;56.532;21.020;2023-12-20T14:57:46;4.90;99.90
73438;DHT22;66471;56.532;21.020;2023-12-20T15:00:15;4.90;99.90
73438;DHT22;66471;56.532;21.020;2023-12-20T15:02:43;4.90;99.90
73438;DHT22;66471;56.532;21.020;2023-12-20T15:05:11;4.90;99.90
73438;DHT22;66471;56.532;21.020;2023-12-20T15:07:38;4.80;99.90
73438;DHT22;66471;56.532;21.020;2023-12-20T15:10:07;4.80;99.90
73438;DHT22;66471;56.532;21.020;2023-12-20T15:12:36;4.80;99.90
73438;DHT22;66471;56.532;21.020;2023-12-20T15:15:03;4.70;99.90
73438;DHT22;66471;56.532;21.020;2023-12-20T15:17:31;4.80;99.90
73438;DHT22;66471;56.532;21.020;2023-12-20T15:19:59;4.70;99.90
73438;DHT22;66471;56.532;21.020;2023-12-20T15:22:29;4.90;99.90
73438;DHT22;66471;56.532;21.020;2023-12-20T15:24:57;4.70;99.90
73438;DHT22;66471;56.532;21.020;2023-12-20T15:27:24;4.60;99.90
73438;DHT22;66471;56.532;21.020;2023-12-20T15:29:52;4.40;99.90
73438;DHT22;66471;56.532;21.020;2023-12-20T15:32:19;4.50;99.90
73438;DHT22;66471;56.532;21.020;2023-12-20T15:34:48;4.40;99.90
73438;DHT22;66471;56.532;21.020;2023-12-20T15:37:16;4.20;99.90
73438;DHT22;66471;56.532;21.020;2023-12-20T15:39:43;4.20;99.90
73438;DHT22;66471;56.532;21.020;2023-12-20T15:42:10;4.00;99.90
73438;DHT22;66471;56.532;21.020;2023-12-20T15:44:38;4.40;99.90
73438;DHT22;66471;56.532;21.020;2023-12-20T15:47:22;4.40;99.90
73438;DHT22;66471;56.532;21.020;2023-12-20T15:49:53;4.70;99.90
73438;DHT22;66471;56.532;21.020;2023-12-20T15:52:22;4.70;99.90
73438;DHT22;66471;56.532;21.020;2023-12-20T15:54:49;4.60;99.90
73438;DHT22;66471;56.532;21.020;2023-12-20T15:57:18;4.80;99.90
73438;DHT22;66471;56.532;21.020;2023-12-20T15:59:55;4.80;99.90
73438;DHT22;66471;56.532;21.020;2023-12-20T16:02:23;4.90;99.90
73438;DHT22;66471;56.532;21.020;2023-12-20T16:04:57;4.80;99.90
73438;DHT22;66471;56.532;21.020;2023-12-20T16:07:26;4.90;99.90
73438;DHT22;66471;56.532;21.020;2023-12-20T16:09:57;5.10;99.90
73438;DHT22;66471;56.532;21.020;2023-12-20T16:12:27;5.00;99.90
73438;DHT22;66471;56.532;21.020;2023-12-20T16:14:58;5.00;99.90
73438;DHT22;66471;56.532;21.020;2023-12-20T16:17:26;4.90;99.90
73438;DHT22;66471;56.532;21.020;2023-12-20T16:19:57;5.10;99.90
73438;DHT22;66471;56.532;21.020;2023-12-20T16:22:27;5.00;99.90
73438;DHT22;66471;56.532;21.020;2023-12-20T16:24:59;5.10;99.90
73438;DHT22;66471;56.532;21.020;2023-12-20T16:27:33;5.00;99.90
73438;DHT22;66471;56.532;21.020;2023-12-20T16:30:03;4.90;99.90
73438;DHT22;66471;56.532;21.020;2023-12-20T16:32:34;5.10;99.90
73438;DHT22;66471;56.532;21.020;2023-12-20T16:35:02;5.00;99.90
73438;DHT22;66471;56.532;21.020;2023-12-20T16:37:33;5.00;99.90
73438;DHT22;66471;56.532;21.020;2023-12-20T16:40:09;5.00;99.90
73438;DHT22;66471;56.532;21.020;2023-12-20T16:42:39;5.00;99.90
73438;DHT22;66471;56.532;21.020;2023-12-20T16:45:08;5.00;99.10
73438;DHT22;66471;56.532;21.020;2023-12-20T16:47:42;5.00;98.20
73438;DHT22;66471;56.532;21.020;2023-12-20T16:50:10;5.00;98.80
73438;DHT22;66471;56.532;21.020;2023-12-20T16:52:39;4.90;99.20
73438;DHT22;66471;56.532;21.020;2023-12-20T16:55:14;4.90;99.50
73438;DHT22;66471;56.532;21.020;2023-12-20T16:57:49;5.10;99.20
73438;DHT22;66471;56.532;21.020;2023-12-20T17:00:23;5.00;99.80
73438;DHT22;66471;56.532;21.020;2023-12-20T17:02:53;4.90;99.90
73438;DHT22;66471;56.532;21.020;2023-12-20T17:05:30;4.90;99.90
73438;DHT22;66471;56.532;21.020;2023-12-20T17:08:01;5.00;99.90
73438;DHT22;66471;56.532;21.020;2023-12-20T17:10:29;4.80;99.50
73438;DHT22;66471;56.532;21.020;2023-12-20T17:16:38;5.00;97.90
73438;DHT22;66471;56.532;21.020;2023-12-20T17:19:06;4.80;98.40
73438;DHT22;66471;56.532;21.020;2023-12-20T17:21:40;4.70;98.90
73438;DHT22;66471;56.532;21.020;2023-12-20T17:24:07;4.60;99.60
73438;DHT22;66471;56.532;21.020;2023-12-20T17:26:41;4.60;99.90
73438;DHT22;66471;56.532;21.020;2023-12-20T17:29:08;4.90;99.90
73438;DHT22;66471;56.532;21.020;2023-12-20T17:31:35;4.80;99.90
73438;DHT22;66471;56.532;21.020;2023-12-20T17:34:03;4.90;99.90
73438;DHT22;66471;56.532;21.020;2023-12-20T17:36:32;4.90;99.90
73438;DHT22;66471;56.532;21.020;2023-12-20T17:38:59;5.00;99.90
73438;DHT22;66471;56.532;21.020;2023-12-20T17:41:26;4.80;99.90
73438;DHT22;66471;56.532;21.020;2023-12-20T17:43:54;4.60;99.90
73438;DHT22;66471;56.532;21.020;2023-12-20T17:46:21;4.80;99.90
73438;DHT22;66471;56.532;21.020;2023-12-20T17:48:48;4.80;99.90
73438;DHT22;66471;56.532;21.020;2023-12-20T17:51:15;4.70;99.90
73438;DHT22;66471;56.532;21.020;2023-12-20T17:53:43;4.60;99.90
73438;DHT22;66471;56.532;21.020;2023-12-20T17:56:11;4.50;99.90
73438;DHT22;66471;56.532;21.020;2023-12-20T17:58:39;4.50;99.90
73438;DHT22;66471;56.532;21.020;2023-12-20T18:01:07;4.60;99.90
73438;DHT22;66471;56.532;21.020;2023-12-20T18:03:34;4.60;99.90
73438;DHT22;66471;56.532;21.020;2023-12-20T18:06:01;4.60;99.90
73438;DHT22;66471;56.532;21.020;2023-12-20T18:08:28;4.60;99.90
73438;DHT22;66471;56.532;21.020;2023-12-20T18:10:56;4.70;99.90
73438;DHT22;66471;56.532;21.020;2023-12-20T18:13:23;4.70;99.90
73438;DHT22;66471;56.532;21.020;2023-12-20T18:15:50;4.80;99.90
73438;DHT22;66471;56.532;21.020;2023-12-20T18:18:17;4.70;99.90
73438;DHT22;66471;56.532;21.020;2023-12-20T18:20:45;4.90;99.90
73438;DHT22;66471;56.532;21.020;2023-12-20T18:23:18;4.70;99.90
73438;DHT22;66471;56.532;21.020;2023-12-20T18:25:46;4.70;99.90
73438;DHT22;66471;56.532;21.020;2023-12-20T18:28:14;4.70;99.90
73438;DHT22;66471;56.532;21.020;2023-12-20T18:30:45;4.50;99.90
73438;DHT22;66471;56.532;21.020;2023-12-20T18:33:12;4.50;99.90
73438;DHT22;66471;56.532;21.020;2023-12-20T18:35:39;4.50;99.90
